Tatabanya, Hungary
Current Conditions -  °F | °C
As of 10:45 PM on Sunday 23 Nov 2014 (Local Time) from LHPR Reporting Station
Broken Clouds Broken Clouds  
Wind Chill: 39°   Ceiling: 2600
Heat Index: 43°   Visibility: 6mi
Dew Point: 36°   Wind: 6mph
Humidity: 76%   Direction: 140°SE
Pressure: 30.42"   Gusts: NA
Location:  47.55°N, 18.44°E
Report Text: LHPR 232045Z 14005KT 9999 BKN026 06/02 Q1030
Loading
Personal Weather Stations






























Interactive Weather Map New forecast layout! Learn more

10-Day Weather Forecast

Advertisements
Track Severe Weather on mobile